createdAt,value
2018-02-15T00:00:18.413Z,51.40
2018-02-15T00:02:46.161Z,47.97
2018-02-15T00:05:13.969Z,46.10
2018-02-15T00:07:41.731Z,45.97
2018-02-15T00:10:10.240Z,44.35
2018-02-15T00:12:38.041Z,42.08
2018-02-15T00:15:05.793Z,43.00
2018-02-15T00:17:33.545Z,46.55
2018-02-15T00:20:02.125Z,43.45
2018-02-15T00:22:29.870Z,46.25
2018-02-15T00:24:57.617Z,52.38
2018-02-15T00:27:25.429Z,44.42
2018-02-15T00:29:53.173Z,42.78
2018-02-15T00:32:20.922Z,45.22
2018-02-15T00:34:48.750Z,49.67
2018-02-15T00:37:17.273Z,43.55
2018-02-15T00:39:45.017Z,43.67
2018-02-15T00:42:12.816Z,44.60
2018-02-15T00:44:40.563Z,46.10
2018-02-15T00:47:08.305Z,47.88
2018-02-15T00:49:36.104Z,42.78
2018-02-15T00:52:03.856Z,46.35
2018-02-15T00:54:31.610Z,52.28
2018-02-15T00:56:59.429Z,47.50
2018-02-15T00:59:27.950Z,45.67
2018-02-15T01:01:55.705Z,45.50
2018-02-15T01:04:23.505Z,46.30
2018-02-15T01:06:51.265Z,47.75
2018-02-15T01:09:19.021Z,42.15
2018-02-15T01:11:46.826Z,43.80
2018-02-15T01:14:14.578Z,48.70
2018-02-15T01:16:43.095Z,42.00
2018-02-15T01:19:10.893Z,45.60
2018-02-15T01:21:38.640Z,47.67
2018-02-15T01:24:06.385Z,45.30
2018-02-15T01:26:34.193Z,45.80
2018-02-15T01:29:02.705Z,44.78
2018-02-15T01:31:30.473Z,47.88
2018-02-15T01:33:58.278Z,45.53
2018-02-15T01:36:26.065Z,51.70
2018-02-15T01:38:54.584Z,47.40
2018-02-15T01:41:22.398Z,45.03
2018-02-15T01:43:50.150Z,43.90
2018-02-15T01:46:17.910Z,44.38
2018-02-15T01:48:45.728Z,43.08
2018-02-15T01:51:13.477Z,49.40
2018-02-15T01:53:41.227Z,43.85
2018-02-15T01:56:09.033Z,44.28
2018-02-15T01:58:36.785Z,45.15
2018-02-15T02:01:04.552Z,45.95
2018-02-15T02:03:32.522Z,47.30
2018-02-15T02:06:00.281Z,47.45
2018-02-15T02:08:28.089Z,42.78
2018-02-15T02:10:56.655Z,41.55
2018-02-15T02:13:24.403Z,42.78
2018-02-15T02:15:52.153Z,44.40
2018-02-15T02:18:19.958Z,45.42
2018-02-15T02:20:48.498Z,44.95
2018-02-15T02:23:16.274Z,46.35
2018-02-15T02:25:44.195Z,49.53
2018-02-15T02:28:11.945Z,48.55
2018-02-15T02:30:39.713Z,45.85
2018-02-15T02:33:07.518Z,43.78
2018-02-15T02:35:36.041Z,44.90
2018-02-15T02:38:04.559Z,44.60
2018-02-15T02:40:32.370Z,42.83
2018-02-15T02:43:00.888Z,42.03
2018-02-15T02:45:28.642Z,44.00
2018-02-15T02:47:56.452Z,46.17
2018-02-15T02:50:24.206Z,48.35
2018-02-15T02:52:51.949Z,44.22
2018-02-15T02:55:19.749Z,44.30
2018-02-15T02:57:47.503Z,50.03
2018-02-15T03:00:15.249Z,46.45
2018-02-15T03:02:43.052Z,47.70
2018-02-15T03:05:11.578Z,53.90
2018-02-15T03:07:39.337Z,49.35
2018-02-15T03:10:07.143Z,49.33
2018-02-15T03:12:35.650Z,43.70
2018-02-15T03:15:03.445Z,46.25
2018-02-15T03:17:32.016Z,47.40
2018-02-15T03:19:59.761Z,46.28
2018-02-15T03:22:27.513Z,45.08
2018-02-15T03:24:55.320Z,48.05
2018-02-15T03:27:23.067Z,44.72
2018-02-15T03:29:50.819Z,49.22
2018-02-15T03:32:18.625Z,44.22
2018-02-15T03:34:46.377Z,46.60
2018-02-15T03:37:14.147Z,48.75
2018-02-15T03:39:41.945Z,48.25
2018-02-15T03:42:09.715Z,52.70
2018-02-15T03:44:37.470Z,46.58
2018-02-15T03:47:05.275Z,47.72
2018-02-15T03:49:33.025Z,44.85
2018-02-15T03:52:00.765Z,47.03
2018-02-15T03:54:28.570Z,45.45
2018-02-15T03:56:56.313Z,48.28
2018-02-15T03:59:24.056Z,45.47
2018-02-15T04:01:51.863Z,43.00
2018-02-15T04:04:19.613Z,44.53
2018-02-15T04:06:47.370Z,47.33
2018-02-15T04:09:15.186Z,51.80
2018-02-15T04:11:42.952Z,42.78
2018-02-15T04:14:10.704Z,44.78
2018-02-15T04:16:39.273Z,47.78
2018-02-15T04:19:07.797Z,48.22
2018-02-15T04:21:35.586Z,43.80
2018-02-15T04:24:03.380Z,45.95
2018-02-15T04:26:31.889Z,47.05
2018-02-15T04:28:59.651Z,47.83
2018-02-15T04:31:27.481Z,47.15
2018-02-15T04:33:56.000Z,44.70
2018-02-15T04:36:23.748Z,46.92
2018-02-15T04:38:51.556Z,50.03
2018-02-15T04:41:19.307Z,42.70
2018-02-15T04:43:47.065Z,46.13
2018-02-15T04:46:14.869Z,44.80
2018-02-15T04:48:43.380Z,46.92
2018-02-15T04:51:11.126Z,46.10
2018-02-15T04:53:39.696Z,45.00
2018-02-15T04:56:08.206Z,43.63
2018-02-15T04:58:35.953Z,46.13
2018-02-15T05:01:03.761Z,46.60
2018-02-15T05:03:31.515Z,43.58
2018-02-15T05:05:59.372Z,43.63
2018-02-15T05:08:27.175Z,45.17
2018-02-15T05:10:54.917Z,44.15
2018-02-15T05:13:22.697Z,46.72
2018-02-15T05:15:50.495Z,44.45
2018-02-15T05:18:18.249Z,42.65
2018-02-15T05:20:46.004Z,46.25
2018-02-15T05:23:13.809Z,43.95
2018-02-15T05:25:41.562Z,44.85
2018-02-15T05:28:09.310Z,47.25
2018-02-15T05:30:37.114Z,49.17
2018-02-15T05:33:04.860Z,48.42
2018-02-15T05:35:32.646Z,47.28
2018-02-15T05:38:00.453Z,44.63
2018-02-15T05:40:28.203Z,45.17
2018-02-15T05:42:55.952Z,46.50
2018-02-15T05:45:24.540Z,46.15
2018-02-15T05:47:53.057Z,42.47
2018-02-15T05:50:20.815Z,45.10
2018-02-15T05:52:48.619Z,48.63
2018-02-15T05:55:16.362Z,46.10
2018-02-15T05:57:44.127Z,45.17
2018-02-15T06:00:11.931Z,46.20
2018-02-15T06:02:40.454Z,49.08
2018-02-15T06:05:08.210Z,47.28
2018-02-15T06:07:36.012Z,45.55
2018-02-15T06:10:03.761Z,44.65
2018-02-15T06:12:31.516Z,45.50
2018-02-15T06:14:59.319Z,45.67
2018-02-15T06:17:27.064Z,48.38
2018-02-15T06:19:54.825Z,48.58
2018-02-15T06:22:22.638Z,50.08
2018-02-15T06:24:50.404Z,44.30
2018-02-15T06:27:18.159Z,48.53
2018-02-15T06:29:45.986Z,46.63
2018-02-15T06:32:14.521Z,49.70
2018-02-15T06:34:42.281Z,50.47
2018-02-15T06:37:10.094Z,45.22
2018-02-15T06:39:38.611Z,44.67
2018-02-15T06:42:06.366Z,50.53
2018-02-15T06:44:34.245Z,47.67
2018-02-15T06:47:02.000Z,50.20
2018-02-15T06:49:29.793Z,53.60
2018-02-15T06:51:57.594Z,54.47
2018-02-15T06:54:25.346Z,49.67
2018-02-15T06:56:53.861Z,50.30
2018-02-15T06:59:21.669Z,50.85
2018-02-15T07:01:49.451Z,50.00
2018-02-15T07:04:17.976Z,46.78
2018-02-15T07:06:45.784Z,51.92
2018-02-15T07:09:14.302Z,55.25
2018-02-15T07:11:42.057Z,52.55
2018-02-15T07:14:09.891Z,49.53
2018-02-15T07:16:38.405Z,46.88
2018-02-15T07:19:06.150Z,50.47
2018-02-15T07:21:33.946Z,46.53
2018-02-15T07:24:01.693Z,53.03
2018-02-15T07:26:29.513Z,49.35
2018-02-15T07:28:57.605Z,49.05
2018-02-15T07:31:25.350Z,48.13
2018-02-15T07:33:53.870Z,46.40
2018-02-15T07:36:21.670Z,48.05
2018-02-15T07:38:49.438Z,48.13
2018-02-15T07:41:17.193Z,51.03
2018-02-15T07:43:45.057Z,49.60
2018-02-15T07:46:12.838Z,48.40
2018-02-15T07:48:41.370Z,49.60
2018-02-15T07:51:09.176Z,47.88
2018-02-15T07:53:36.941Z,49.67
2018-02-15T07:56:05.466Z,44.42
2018-02-15T07:58:33.286Z,48.03
2018-02-15T08:01:01.821Z,54.28
2018-02-15T08:03:29.569Z,47.47
2018-02-15T08:05:57.380Z,49.50
2018-02-15T08:08:25.126Z,44.97
2018-02-15T08:10:52.874Z,51.90
2018-02-15T08:13:20.686Z,46.70
2018-02-15T08:15:49.199Z,48.05
2018-02-15T08:18:16.949Z,49.88
2018-02-15T08:20:44.754Z,46.75
2018-02-15T08:23:12.508Z,47.08
2018-02-15T08:25:40.319Z,46.37
2018-02-15T08:28:08.894Z,49.92
2018-02-15T08:30:37.410Z,61.50
2018-02-15T08:33:05.165Z,53.38
2018-02-15T08:35:32.965Z,50.20
2018-02-15T08:38:00.709Z,48.45
2018-02-15T08:40:28.462Z,52.42
2018-02-15T08:42:56.267Z,52.85
2018-02-15T08:45:24.042Z,53.60
2018-02-15T08:47:52.555Z,45.58
2018-02-15T08:50:20.361Z,48.13
2018-02-15T08:52:48.253Z,55.72
2018-02-15T08:55:16.769Z,55.95
2018-02-15T08:57:44.572Z,51.37
2018-02-15T09:00:12.321Z,52.60
2018-02-15T09:02:40.081Z,52.20
2018-02-15T09:05:07.885Z,51.40
2018-02-15T09:07:36.425Z,48.75
2018-02-15T09:10:04.181Z,50.88
2018-02-15T09:12:31.986Z,52.67
2018-02-15T09:15:00.530Z,68.45
2018-02-15T09:17:28.286Z,88.82
2018-02-15T09:19:56.111Z,57.80
2018-02-15T09:22:23.857Z,60.47
2018-02-15T09:24:51.622Z,56.37
2018-02-15T09:27:19.484Z,62.05
2018-02-15T09:29:47.233Z,64.82
2018-02-15T09:32:15.768Z,69.25
2018-02-15T09:34:43.585Z,78.65
2018-02-15T09:37:11.370Z,76.05
2018-02-15T09:39:39.118Z,66.97
2018-02-15T09:42:07.142Z,59.75
2018-02-15T09:44:34.895Z,48.78
2018-02-15T09:47:02.785Z,52.53
2018-02-15T09:49:31.361Z,47.83
2018-02-15T09:51:59.121Z,51.37
2018-02-15T09:54:26.907Z,50.80
2018-02-15T09:56:54.726Z,46.88
2018-02-15T09:59:22.473Z,41.08
2018-02-15T10:01:51.136Z,43.72
2018-02-15T10:04:18.936Z,45.00
2018-02-15T10:06:46.809Z,42.05
2018-02-15T10:09:14.565Z,40.55
2018-02-15T10:11:42.369Z,46.30
2018-02-15T10:14:10.118Z,45.05
2018-02-15T10:16:38.636Z,42.28
2018-02-15T10:19:06.432Z,44.42
2018-02-15T10:21:34.180Z,44.13
2018-02-15T10:24:02.150Z,41.83
2018-02-15T10:26:29.979Z,38.97
2018-02-15T10:28:57.740Z,42.20
2018-02-15T10:31:25.486Z,40.67
2018-02-15T10:33:53.287Z,38.95
2018-02-15T10:36:21.804Z,41.15
2018-02-15T10:38:49.549Z,39.85
2018-02-15T10:41:17.345Z,38.72
2018-02-15T10:43:46.039Z,43.50
2018-02-15T10:46:13.822Z,40.63
2018-02-15T10:48:41.625Z,41.13
2018-02-15T10:51:09.380Z,38.78
2018-02-15T10:53:37.324Z,44.33
2018-02-15T10:56:05.120Z,42.95
2018-02-15T10:58:32.875Z,38.25
2018-02-15T11:01:06.261Z,38.90
2018-02-15T11:03:34.023Z,40.58
2018-02-15T11:06:01.780Z,43.53
2018-02-15T11:08:29.593Z,42.08
2018-02-15T11:10:57.332Z,36.40
2018-02-15T11:13:25.077Z,38.72
2018-02-15T11:15:52.889Z,39.25
2018-02-15T11:18:20.639Z,45.67
2018-02-15T11:20:48.449Z,41.00
2018-02-15T11:23:16.268Z,42.78
2018-02-15T11:25:44.016Z,33.63
2018-02-15T11:28:12.528Z,37.08
2018-02-15T11:30:40.327Z,35.95
2018-02-15T11:33:08.078Z,37.58
2018-02-15T11:35:35.838Z,39.80
2018-02-15T11:38:03.654Z,35.53
2018-02-15T11:40:31.402Z,33.80
2018-02-15T11:42:59.924Z,34.92
2018-02-15T11:45:27.737Z,36.97
2018-02-15T11:47:56.253Z,36.38
2018-02-15T11:50:23.993Z,36.13
2018-02-15T11:52:52.566Z,31.90
2018-02-15T11:55:21.077Z,34.55
2018-02-15T11:57:48.821Z,36.10
2018-02-15T12:00:16.621Z,32.40
2018-02-15T12:02:44.368Z,32.85
2018-02-15T12:05:12.122Z,32.28
2018-02-15T12:07:39.933Z,32.42
2018-02-15T12:10:07.682Z,34.97
2018-02-15T12:12:35.441Z,32.65
2018-02-15T12:15:03.258Z,37.45
2018-02-15T12:17:31.000Z,35.90
2018-02-15T12:19:59.516Z,28.83
2018-02-15T12:22:27.322Z,30.67
2018-02-15T12:24:55.069Z,30.23
2018-02-15T12:27:22.817Z,28.45
2018-02-15T12:29:50.614Z,29.52
2018-02-15T12:32:18.360Z,32.15
2018-02-15T12:34:46.111Z,27.60
2018-02-15T12:37:13.911Z,29.30
2018-02-15T12:39:42.431Z,25.58
2018-02-15T12:42:10.181Z,27.70
2018-02-15T12:44:37.981Z,26.85
2018-02-15T12:47:05.770Z,28.17
2018-02-15T12:49:34.293Z,26.92
2018-02-15T12:52:02.090Z,26.12
2018-02-15T12:54:29.838Z,28.58
2018-02-15T12:56:57.589Z,28.02
2018-02-15T12:59:25.450Z,27.48
2018-02-15T13:01:53.225Z,27.58
2018-02-15T13:04:21.754Z,25.60
2018-02-15T13:06:50.317Z,21.17
2018-02-15T13:09:18.065Z,25.27
2018-02-15T13:11:45.809Z,24.58
2018-02-15T13:14:13.617Z,24.67
2018-02-15T13:16:53.993Z,24.23
2018-02-15T13:19:33.677Z,26.02
2018-02-15T13:22:01.433Z,28.92
2018-02-15T13:24:29.181Z,26.70
2018-02-15T13:26:56.984Z,32.47
2018-02-15T13:29:24.729Z,33.22
2018-02-15T13:31:52.468Z,29.30
2018-02-15T13:34:21.090Z,32.55
2018-02-15T13:36:49.192Z,29.05
2018-02-15T13:39:16.936Z,28.60
2018-02-15T13:41:45.509Z,29.90
2018-02-15T13:44:14.020Z,25.75
2018-02-15T13:46:41.772Z,27.48
2018-02-15T13:49:09.570Z,24.37
2018-02-15T13:51:37.326Z,24.40
2018-02-15T13:54:05.073Z,28.20
2018-02-15T13:56:32.875Z,29.15
2018-02-15T13:59:00.623Z,28.55
2018-02-15T14:01:28.370Z,28.70
2018-02-15T14:03:56.170Z,28.75
2018-02-15T14:06:23.917Z,29.20
2018-02-15T14:08:51.661Z,27.70
2018-02-15T14:11:21.088Z,25.08
2018-02-15T14:13:48.835Z,29.10
2018-02-15T14:16:16.605Z,25.75
2018-02-15T14:18:44.427Z,27.70
2018-02-15T14:21:12.169Z,29.58
2018-02-15T14:23:39.963Z,25.98
2018-02-15T14:26:07.761Z,28.60
2018-02-15T14:28:35.520Z,24.67
2018-02-15T14:31:03.270Z,26.55
2018-02-15T14:33:31.069Z,24.75
2018-02-15T14:35:59.577Z,23.20
2018-02-15T14:38:27.326Z,25.23
2018-02-15T14:40:55.128Z,25.58
2018-02-15T14:43:23.641Z,29.37
2018-02-15T14:45:51.393Z,28.73
2018-02-15T14:48:19.193Z,27.80
2018-02-15T14:50:46.943Z,29.10
2018-02-15T14:53:15.462Z,26.27
2018-02-15T14:55:43.280Z,27.40
2018-02-15T14:58:11.790Z,28.35
2018-02-15T15:00:39.531Z,30.08
2018-02-15T15:03:08.093Z,27.20
2018-02-15T15:05:35.844Z,25.42
2018-02-15T15:08:03.590Z,21.87
2018-02-15T15:10:31.398Z,27.55
2018-02-15T15:12:59.909Z,25.37
2018-02-15T15:15:27.651Z,22.20
2018-02-15T15:17:55.456Z,25.45
2018-02-15T15:20:23.958Z,25.73
2018-02-15T15:22:51.712Z,22.50
2018-02-15T15:25:19.513Z,25.48
2018-02-15T15:27:47.270Z,26.10
2018-02-15T15:30:15.022Z,24.12
2018-02-15T15:32:43.772Z,23.17
2018-02-15T15:35:11.517Z,19.73
2018-02-15T15:37:39.290Z,20.67
2018-02-15T15:40:07.107Z,20.73
2018-02-15T15:42:34.925Z,22.23
2018-02-15T15:45:02.686Z,23.30
2018-02-15T15:47:30.495Z,21.73
2018-02-15T15:49:58.567Z,19.62
2018-02-15T15:52:26.334Z,21.58
2018-02-15T15:54:54.135Z,21.75
2018-02-15T15:57:21.906Z,24.55
2018-02-15T15:59:49.656Z,23.05
2018-02-15T16:02:17.445Z,24.40
2018-02-15T16:04:46.209Z,22.85
2018-02-15T16:07:16.026Z,23.98
2018-02-15T16:09:45.683Z,22.92
2018-02-15T16:12:13.973Z,23.85
2018-02-15T16:14:43.049Z,22.33
2018-02-15T16:17:12.210Z,21.80
2018-02-15T16:19:41.067Z,21.52
2018-02-15T16:22:10.015Z,22.50
2018-02-15T16:24:37.852Z,23.65
2018-02-15T16:27:05.728Z,27.13
2018-02-15T16:29:34.326Z,24.33
2018-02-15T16:32:02.167Z,26.12
2018-02-15T16:34:30.703Z,23.52
2018-02-15T16:36:58.515Z,26.67
2018-02-15T16:39:26.326Z,22.15
2018-02-15T16:41:54.103Z,23.20
2018-02-15T16:44:21.862Z,23.80
2018-02-15T16:46:49.670Z,26.52
2018-02-15T16:49:17.420Z,26.15
2018-02-15T16:51:45.931Z,27.45
2018-02-15T16:54:13.735Z,24.37
2018-02-15T16:56:41.491Z,25.50
2018-02-15T16:59:09.237Z,26.77
2018-02-15T17:01:37.064Z,23.40
2018-02-15T17:04:04.813Z,23.75
2018-02-15T17:06:33.321Z,25.90
2018-02-15T17:09:01.125Z,22.67
2018-02-15T17:11:28.871Z,25.48
2018-02-15T17:13:57.386Z,28.10
2018-02-15T17:16:25.192Z,26.08
2018-02-15T17:18:52.937Z,25.17
2018-02-15T17:21:20.722Z,30.48
2018-02-15T17:23:48.529Z,28.70
2018-02-15T17:26:16.282Z,28.92
2018-02-15T17:28:44.030Z,30.77
2018-02-15T17:31:11.845Z,28.42
2018-02-15T17:33:39.614Z,32.60
2018-02-15T17:36:07.366Z,29.92
2018-02-15T17:38:35.164Z,27.77
2018-02-15T17:41:02.947Z,30.00
2018-02-15T17:43:30.708Z,32.47
2018-02-15T17:46:03.886Z,34.22
2018-02-15T17:48:31.971Z,31.48
2018-02-15T17:50:59.721Z,29.55
2018-02-15T17:53:27.666Z,29.42
2018-02-15T17:55:55.426Z,29.42
2018-02-15T17:58:23.248Z,31.33
2018-02-15T18:00:51.810Z,28.48
2018-02-15T18:03:19.562Z,27.33
2018-02-15T18:05:47.313Z,31.85
2018-02-15T18:08:15.125Z,29.35
2018-02-15T18:10:44.025Z,30.10
2018-02-15T18:13:22.729Z,29.08
2018-02-15T18:16:00.491Z,28.45
2018-02-15T18:18:29.070Z,31.95
2018-02-15T18:20:57.029Z,32.65
2018-02-15T18:23:25.640Z,32.08
2018-02-15T18:25:54.527Z,32.47
2018-02-15T18:28:22.409Z,30.37
2018-02-15T18:30:50.196Z,30.30
2018-02-15T18:33:18.974Z,27.75
2018-02-15T18:35:46.723Z,29.95
2018-02-15T18:38:14.570Z,30.83
2018-02-15T18:40:42.402Z,32.10
2018-02-15T18:43:10.217Z,31.70
2018-02-15T18:45:37.982Z,34.70
2018-02-15T18:48:08.581Z,30.23
2018-02-15T18:50:37.434Z,30.05
2018-02-15T18:53:05.262Z,35.45
2018-02-15T18:55:33.085Z,36.40
2018-02-15T18:58:01.622Z,34.47
2018-02-15T19:00:29.509Z,31.45
2018-02-15T19:02:57.349Z,34.58
2018-02-15T19:05:25.187Z,31.52
2018-02-15T19:07:53.113Z,30.25
2018-02-15T19:10:20.917Z,31.55
2018-02-15T19:12:48.677Z,33.83
2018-02-15T19:15:16.441Z,29.17
2018-02-15T19:17:44.326Z,29.73
2018-02-15T19:20:12.090Z,29.83
2018-02-15T19:22:39.849Z,31.02
2018-02-15T19:25:07.659Z,29.80
2018-02-15T19:27:35.424Z,31.73
2018-02-15T19:30:03.181Z,30.00
2018-02-15T19:32:30.980Z,29.60
2018-02-15T19:34:58.865Z,29.95
2018-02-15T19:37:26.630Z,31.37
2018-02-15T19:39:54.429Z,30.40
2018-02-15T19:42:22.249Z,29.95
2018-02-15T19:44:50.002Z,27.58
2018-02-15T19:47:17.854Z,32.25
2018-02-15T19:49:45.597Z,29.20
2018-02-15T19:52:14.113Z,28.55
2018-02-15T19:54:41.912Z,31.12
2018-02-15T19:57:09.668Z,28.58
2018-02-15T19:59:37.462Z,32.85
2018-02-15T20:02:06.028Z,30.25
2018-02-15T20:04:33.786Z,28.85
2018-02-15T20:07:01.556Z,27.52
2018-02-15T20:09:29.359Z,28.98
2018-02-15T20:11:57.136Z,30.73
2018-02-15T20:14:24.888Z,28.58
2018-02-15T20:16:52.688Z,29.00
2018-02-15T20:19:20.432Z,25.92
2018-02-15T20:21:48.177Z,29.52
2018-02-15T20:24:15.998Z,31.60
2018-02-15T20:26:50.239Z,24.83
2018-02-15T20:29:18.043Z,26.70
2018-02-15T20:31:45.794Z,30.08
2018-02-15T20:34:13.553Z,30.12
2018-02-15T20:36:41.465Z,27.20
2018-02-15T20:39:15.580Z,27.10
2018-02-15T20:41:44.162Z,26.15
2018-02-15T20:44:12.697Z,29.75
2018-02-15T20:46:40.442Z,28.38
2018-02-15T20:49:14.054Z,26.12
2018-02-15T20:51:47.561Z,26.75
2018-02-15T20:54:20.934Z,31.58
2018-02-15T20:56:48.708Z,26.65
2018-02-15T20:59:16.481Z,30.35
2018-02-15T21:01:44.362Z,28.25
2018-02-15T21:04:12.128Z,30.37
2018-02-15T21:06:39.910Z,27.80
2018-02-15T21:09:07.712Z,28.80
2018-02-15T21:11:35.477Z,30.02
2018-02-15T21:14:04.072Z,26.98
2018-02-15T21:16:31.893Z,30.55
2018-02-15T21:18:59.657Z,30.88
2018-02-15T21:21:27.488Z,28.62
2018-02-15T21:23:56.068Z,31.37
2018-02-15T21:26:24.606Z,32.08
2018-02-15T21:28:52.367Z,31.50
2018-02-15T21:31:20.331Z,30.92
2018-02-15T21:33:48.138Z,27.55
2018-02-15T21:36:16.653Z,29.52
2018-02-15T21:38:44.522Z,30.67
2018-02-15T21:41:12.308Z,28.02
2018-02-15T21:43:40.097Z,29.23
2018-02-15T21:46:08.693Z,28.25
2018-02-15T21:48:37.231Z,26.23
2018-02-15T21:51:05.015Z,30.85
2018-02-15T21:53:32.816Z,28.10
2018-02-15T21:56:00.573Z,27.73
2018-02-15T21:58:29.077Z,28.58
2018-02-15T22:00:56.880Z,30.10
2018-02-15T22:03:24.669Z,30.42
2018-02-15T22:05:53.197Z,29.60
2018-02-15T22:08:21.004Z,38.45
2018-02-15T22:10:49.526Z,34.88
2018-02-15T22:13:17.293Z,33.15
2018-02-15T22:15:45.097Z,30.17
2018-02-15T22:18:12.860Z,28.95
2018-02-15T22:20:40.626Z,25.90
2018-02-15T22:23:08.434Z,27.60
2018-02-15T22:25:36.188Z,31.00
2018-02-15T22:28:03.945Z,30.52
2018-02-15T22:30:31.759Z,29.35
2018-02-15T22:32:59.509Z,30.48
2018-02-15T22:35:27.282Z,30.40
2018-02-15T22:37:55.117Z,29.30
2018-02-15T22:40:22.862Z,30.20
2018-02-15T22:42:50.610Z,25.88
2018-02-15T22:45:18.419Z,27.10
2018-02-15T22:47:46.174Z,27.92
2018-02-15T22:50:13.930Z,29.08
2018-02-15T22:52:41.759Z,29.65
2018-02-15T22:55:09.520Z,27.70
2018-02-15T22:57:37.268Z,28.48
2018-02-15T23:00:05.850Z,28.10
2018-02-15T23:02:34.370Z,28.23
2018-02-15T23:05:02.128Z,28.40
2018-02-15T23:07:29.951Z,26.65
2018-02-15T23:09:58.506Z,24.80
2018-02-15T23:12:26.254Z,25.80
2018-02-15T23:14:54.107Z,27.42
2018-02-15T23:17:21.865Z,26.60
2018-02-15T23:19:49.617Z,27.98
2018-02-15T23:22:17.416Z,26.85
2018-02-15T23:24:45.165Z,27.37
2018-02-15T23:27:12.926Z,25.48
2018-02-15T23:29:40.734Z,28.77
2018-02-15T23:32:09.252Z,30.50
2018-02-15T23:34:37.003Z,28.55
2018-02-15T23:37:04.804Z,29.58
2018-02-15T23:39:32.561Z,29.17
2018-02-15T23:42:01.105Z,28.45
2018-02-15T23:44:28.933Z,31.67
2018-02-15T23:46:57.461Z,27.90
2018-02-15T23:49:25.208Z,30.48
2018-02-15T23:51:53.018Z,30.85
2018-02-15T23:54:20.799Z,31.60
2018-02-15T23:56:49.312Z,31.92
2018-02-15T23:59:17.213Z,28.87
